Time;durP1;ratioP1;P1;durP2;ratioP2;P2;SDS_P1;SDS_P2;PMS_P1;PMS_P2;Temp;Humidity;BMP_temperature;BMP_pressure;BME280_temperature;BME280_humidity;BME280_pressure;Samples;Min_cycle;Max_cycle;Signal;HPM_P1;HPM_P2
2023/08/04 00:00:07;;;;;;;19.70;11.20;;;;;;;;;;4974534;28;20043;-65
2023/08/04 00:02:33;;;;;;;20.98;11.25;;;;;;;;;;4973613;28;20047;-66
2023/08/04 00:05:00;;;;;;;17.58;10.88;;;;;;;;;;4973742;28;20046;-64
2023/08/04 00:07:27;;;;;;;17.63;10.88;;;;;;;;;;4982369;28;20473;-64
2023/08/04 00:09:53;;;;;;;21.08;11.35;;;;;;;;;;4971892;28;20130;-64
2023/08/04 00:12:21;;;;;;;18.23;10.73;;;;;;;;;;4973228;28;20506;-64
2023/08/04 00:14:48;;;;;;;18.80;10.43;;;;;;;;;;4974112;28;20313;-64
2023/08/04 00:17:15;;;;;;;16.27;9.68;;;;;;;;;;4985421;28;20049;-64
2023/08/04 00:19:42;;;;;;;17.90;10.23;;;;;;;;;;4973617;28;20100;-65
2023/08/04 00:22:10;;;;;;;20.38;10.65;;;;;;;;;;4967348;28;20585;-65
2023/08/04 00:24:37;;;;;;;21.02;10.70;;;;;;;;;;4970855;28;20156;-65
2023/08/04 00:27:04;;;;;;;20.52;10.73;;;;;;;;;;4978611;28;20061;-64
2023/08/04 00:29:30;;;;;;;16.83;9.75;;;;;;;;;;4972439;28;20081;-64
2023/08/04 00:31:57;;;;;;;18.33;10.90;;;;;;;;;;4973986;28;20034;-63
2023/08/04 00:34:24;;;;;;;16.55;10.05;;;;;;;;;;4982078;28;20402;-63
2023/08/04 00:36:50;;;;;;;20.08;11.00;;;;;;;;;;4973857;28;20117;-64
2023/08/04 00:39:17;;;;;;;16.35;10.88;;;;;;;;;;4973871;28;20030;-66
2023/08/04 00:41:44;;;;;;;21.05;10.73;;;;;;;;;;4967610;28;22352;-66
2023/08/04 00:44:11;;;;;;;16.35;10.40;;;;;;;;;;4974372;28;20109;-65
2023/08/04 00:46:39;;;;;;;17.65;10.63;;;;;;;;;;4972768;28;20129;-66
2023/08/04 00:49:06;;;;;;;19.27;11.65;;;;;;;;;;4975152;28;20101;-62
2023/08/04 00:51:33;;;;;;;16.42;10.82;;;;;;;;;;4976836;28;20049;-64
2023/08/04 00:54:01;;;;;;;20.85;11.05;;;;;;;;;;4996120;28;20095;-66
2023/08/04 00:56:29;;;;;;;18.08;10.35;;;;;;;;;;5001224;28;20057;-65
2023/08/04 00:58:56;;;;;;;17.63;11.23;;;;;;;;;;4975264;28;20050;-67
2023/08/04 01:01:22;;;;;;;18.75;11.05;;;;;;;;;;4976422;28;20073;-64
2023/08/04 01:03:51;;;;;;;17.08;10.30;;;;;;;;;;4976102;28;20097;-64
2023/08/04 01:06:30;;;;;;;17.15;10.65;;;;;;;;;;4976669;28;20038;-65
2023/08/04 01:09:23;;;;;;;18.88;10.20;;;;;;;;;;4966076;28;20436;-64
2023/08/04 01:11:56;;;;;;;16.48;11.02;;;;;;;;;;4960050;28;20468;-64
2023/08/04 01:14:24;;;;;;;18.92;11.48;;;;;;;;;;4967856;28;20046;-66
2023/08/04 01:16:50;;;;;;;18.98;11.68;;;;;;;;;;4966517;28;20038;-65
2023/08/04 01:19:17;;;;;;;18.92;11.25;;;;;;;;;;4968411;28;20096;-66
2023/08/04 01:22:06;;;;;;;21.45;11.65;;;;;;;;;;5002859;28;20081;-65
2023/08/04 01:24:33;;;;;;;21.08;11.77;;;;;;;;;;5003497;28;20050;-67
2023/08/04 01:26:59;;;;;;;18.38;12.48;;;;;;;;;;4992795;28;20041;-65
2023/08/04 01:29:26;;;;;;;19.95;12.18;;;;;;;;;;4999303;28;20566;-65
2023/08/04 01:31:53;;;;;;;21.13;12.68;;;;;;;;;;4994115;28;20057;-65
2023/08/04 01:34:20;;;;;;;21.20;13.00;;;;;;;;;;4994172;28;20154;-65
2023/08/04 01:36:48;;;;;;;17.95;11.48;;;;;;;;;;4985366;28;21616;-65
2023/08/04 01:39:14;;;;;;;24.83;13.38;;;;;;;;;;4976156;28;20105;-66
2023/08/04 01:41:42;;;;;;;22.38;13.48;;;;;;;;;;4992599;28;22641;-66
2023/08/04 01:44:09;;;;;;;20.92;12.20;;;;;;;;;;5001652;28;20049;-65
2023/08/04 01:46:36;;;;;;;22.27;13.38;;;;;;;;;;4998594;28;20064;-64
2023/08/04 01:49:03;;;;;;;21.98;13.95;;;;;;;;;;4991959;28;20224;-65
2023/08/04 01:51:29;;;;;;;24.15;12.45;;;;;;;;;;4991931;28;20509;-66
2023/08/04 01:53:57;;;;;;;21.85;13.32;;;;;;;;;;4997743;28;21062;-65
2023/08/04 01:56:44;;;;;;;21.55;12.48;;;;;;;;;;5019306;28;20652;-65
2023/08/04 01:59:12;;;;;;;24.30;12.88;;;;;;;;;;4993356;28;20051;-65
2023/08/04 02:01:38;;;;;;;21.40;12.80;;;;;;;;;;4995238;28;20076;-67
2023/08/04 02:04:05;;;;;;;21.90;13.48;;;;;;;;;;5006111;28;20105;-65
2023/08/04 02:06:32;;;;;;;22.05;13.88;;;;;;;;;;5013219;28;20059;-65
2023/08/04 02:09:03;;;;;;;23.67;13.70;;;;;;;;;;5024113;28;20072;-65
2023/08/04 02:11:34;;;;;;;22.83;13.70;;;;;;;;;;5023027;28;20033;-65
2023/08/04 02:14:01;;;;;;;25.92;13.45;;;;;;;;;;4980423;28;20185;-64
2023/08/04 02:16:27;;;;;;;19.70;13.27;;;;;;;;;;5020766;28;20037;-64
2023/08/04 02:19:00;;;;;;;22.00;12.80;;;;;;;;;;5004961;28;20052;-66
2023/08/04 02:21:27;;;;;;;21.27;13.23;;;;;;;;;;5025247;28;20496;-66
2023/08/04 02:23:53;;;;;;;25.63;13.85;;;;;;;;;;5023189;28;20049;-66
2023/08/04 02:26:20;;;;;;;19.80;13.15;;;;;;;;;;5023973;28;20056;-66
2023/08/04 02:28:49;;;;;;;23.40;13.23;;;;;;;;;;5021730;28;20650;-67
2023/08/04 02:31:18;;;;;;;19.35;12.38;;;;;;;;;;5023977;28;20037;-67
2023/08/04 02:33:44;;;;;;;21.50;13.18;;;;;;;;;;5009023;28;20435;-66
2023/08/04 02:36:11;;;;;;;21.70;13.73;;;;;;;;;;4966002;28;20054;-66
2023/08/04 02:38:38;;;;;;;24.63;13.55;;;;;;;;;;4981447;28;20043;-66
2023/08/04 02:41:04;;;;;;;21.25;12.60;;;;;;;;;;4965789;28;20594;-66
2023/08/04 02:43:31;;;;;;;21.70;12.85;;;;;;;;;;4967620;28;20407;-64
2023/08/04 02:45:58;;;;;;;21.67;12.43;;;;;;;;;;4968363;28;20038;-65
2023/08/04 02:48:24;;;;;;;24.20;13.52;;;;;;;;;;4969048;28;20062;-64
2023/08/04 02:51:17;;;;;;;21.35;13.48;;;;;;;;;;4969002;28;20042;-64
2023/08/04 02:53:45;;;;;;;22.60;13.07;;;;;;;;;;4975274;28;20132;-66
2023/08/04 02:56:14;;;;;;;24.48;13.73;;;;;;;;;;4968569;28;20133;-66
2023/08/04 02:58:42;;;;;;;22.75;12.95;;;;;;;;;;4967291;28;20052;-65
2023/08/04 03:01:09;;;;;;;32.88;14.75;;;;;;;;;;4967693;28;20038;-66
2023/08/04 03:03:35;;;;;;;23.48;13.38;;;;;;;;;;4965411;28;21049;-65
2023/08/04 03:06:03;;;;;;;19.63;13.68;;;;;;;;;;4966593;28;20121;-64
2023/08/04 03:08:33;;;;;;;20.08;13.35;;;;;;;;;;4965278;28;20047;-65
2023/08/04 03:11:00;;;;;;;23.67;13.73;;;;;;;;;;4970673;28;20041;-65
2023/08/04 03:13:27;;;;;;;22.42;14.30;;;;;;;;;;4969442;28;20066;-64
2023/08/04 03:16:00;;;;;;;26.33;14.27;;;;;;;;;;4965627;28;20451;-65
2023/08/04 03:18:27;;;;;;;23.98;14.55;;;;;;;;;;4966068;28;20502;-66
2023/08/04 03:20:54;;;;;;;27.50;14.50;;;;;;;;;;4969340;28;20116;-64
2023/08/04 03:23:21;;;;;;;28.05;13.23;;;;;;;;;;4969654;28;20046;-68
2023/08/04 03:25:48;;;;;;;25.48;14.35;;;;;;;;;;4965010;28;20039;-67
2023/08/04 03:28:15;;;;;;;21.67;14.07;;;;;;;;;;4966940;28;20042;-66
2023/08/04 03:30:41;;;;;;;23.05;14.88;;;;;;;;;;4963061;28;20042;-66
2023/08/04 03:33:08;;;;;;;27.83;14.95;;;;;;;;;;4966887;28;20074;-62
2023/08/04 03:35:35;;;;;;;23.40;13.90;;;;;;;;;;4968713;28;20045;-65
2023/08/04 03:38:03;;;;;;;22.85;13.85;;;;;;;;;;4976835;28;20038;-65
2023/08/04 03:40:29;;;;;;;24.90;14.23;;;;;;;;;;4973055;28;20133;-65
2023/08/04 03:42:56;;;;;;;22.00;13.93;;;;;;;;;;4967141;28;20042;-67
2023/08/04 03:45:22;;;;;;;25.42;13.93;;;;;;;;;;4966375;28;20039;-68
2023/08/04 03:47:49;;;;;;;26.10;13.73;;;;;;;;;;4968469;28;20794;-66
2023/08/04 03:50:16;;;;;;;25.40;14.70;;;;;;;;;;4966369;28;20085;-65
2023/08/04 03:52:42;;;;;;;21.75;13.48;;;;;;;;;;4967334;28;20164;-65
2023/08/04 03:55:09;;;;;;;20.27;12.60;;;;;;;;;;4966389;28;20439;-66
2023/08/04 03:57:36;;;;;;;20.42;13.60;;;;;;;;;;4965500;28;20794;-64
2023/08/04 04:00:03;;;;;;;28.50;14.27;;;;;;;;;;4966473;28;20046;-65
2023/08/04 04:02:30;;;;;;;22.33;14.02;;;;;;;;;;4966896;28;20039;-64
2023/08/04 04:04:56;;;;;;;20.73;13.40;;;;;;;;;;4967408;28;20063;-64
2023/08/04 04:07:23;;;;;;;21.92;12.63;;;;;;;;;;4966300;28;20038;-65
2023/08/04 04:09:50;;;;;;;19.67;12.88;;;;;;;;;;4973565;28;20074;-64
2023/08/04 04:12:16;;;;;;;24.40;13.10;;;;;;;;;;4967024;28;20038;-65
2023/08/04 04:14:43;;;;;;;25.58;13.57;;;;;;;;;;4964719;28;20049;-64
2023/08/04 04:17:09;;;;;;;23.30;13.38;;;;;;;;;;4967938;28;20038;-64
2023/08/04 04:19:36;;;;;;;20.55;13.57;;;;;;;;;;4966665;28;20038;-64
2023/08/04 04:22:03;;;;;;;22.10;13.15;;;;;;;;;;4968491;28;20050;-65
2023/08/04 04:24:29;;;;;;;21.30;14.10;;;;;;;;;;4968784;28;20062;-64
2023/08/04 04:26:56;;;;;;;21.85;13.60;;;;;;;;;;4971248;28;20282;-64
2023/08/04 04:29:22;;;;;;;23.92;14.95;;;;;;;;;;4970118;28;20064;-65
2023/08/04 04:31:49;;;;;;;23.30;14.38;;;;;;;;;;4981318;28;20562;-64
2023/08/04 04:34:16;;;;;;;23.55;14.02;;;;;;;;;;4980402;28;20100;-64
2023/08/04 04:36:42;;;;;;;21.52;14.45;;;;;;;;;;4986869;28;20038;-64
2023/08/04 04:39:09;;;;;;;25.25;14.50;;;;;;;;;;4977424;28;20099;-64
2023/08/04 04:41:37;;;;;;;23.27;13.75;;;;;;;;;;4976694;28;20039;-64
2023/08/04 04:44:03;;;;;;;20.27;13.65;;;;;;;;;;4977865;28;20189;-64
2023/08/04 04:46:30;;;;;;;21.13;14.15;;;;;;;;;;4978023;28;20098;-64
2023/08/04 04:48:57;;;;;;;19.23;13.18;;;;;;;;;;4977567;28;20070;-65
2023/08/04 04:51:23;;;;;;;21.15;14.48;;;;;;;;;;4985233;28;20128;-64
2023/08/04 04:53:50;;;;;;;21.83;13.25;;;;;;;;;;4984996;28;20034;-63
2023/08/04 04:56:17;;;;;;;23.95;13.15;;;;;;;;;;4976369;28;20137;-65
2023/08/04 04:58:43;;;;;;;20.83;13.13;;;;;;;;;;4976724;28;20594;-64
2023/08/04 05:01:10;;;;;;;19.55;12.43;;;;;;;;;;4977582;28;20042;-64
2023/08/04 05:03:37;;;;;;;23.20;13.80;;;;;;;;;;4976680;28;20054;-65
2023/08/04 05:06:03;;;;;;;21.83;12.43;;;;;;;;;;4977412;28;20517;-63
2023/08/04 05:08:30;;;;;;;21.13;12.85;;;;;;;;;;4984942;28;20291;-63
2023/08/04 05:10:56;;;;;;;21.58;13.35;;;;;;;;;;4982194;28;20087;-65
2023/08/04 05:13:23;;;;;;;21.13;12.90;;;;;;;;;;4988207;28;20038;-64
2023/08/04 05:15:50;;;;;;;24.60;12.80;;;;;;;;;;4976654;28;20511;-64
2023/08/04 05:18:17;;;;;;;20.38;12.82;;;;;;;;;;4976239;28;20046;-65
2023/08/04 05:20:47;;;;;;;22.55;13.30;;;;;;;;;;4984664;28;20058;-64
2023/08/04 05:23:14;;;;;;;21.40;13.00;;;;;;;;;;4976625;28;20054;-64
2023/08/04 05:25:41;;;;;;;20.52;12.70;;;;;;;;;;4976218;28;20053;-64
2023/08/04 05:28:24;;;;;;;19.60;12.18;;;;;;;;;;4977103;28;20046;-64
2023/08/04 05:30:50;;;;;;;;;;;;;;;;;;4976387;28;20408;-64
2023/08/04 05:33:17;;;;;;;20.92;12.95;;;;;;;;;;4975870;28;19977;-64
2023/08/04 05:35:47;;;;;;;24.70;13.25;;;;;;;;;;4974919;28;20038;-64
2023/08/04 05:38:14;;;;;;;18.92;11.63;;;;;;;;;;4975407;28;20056;-65
2023/08/04 05:40:43;;;;;;;20.02;12.23;;;;;;;;;;4975012;28;20510;-64
2023/08/04 05:43:10;;;;;;;22.13;12.35;;;;;;;;;;4976150;28;20133;-64
2023/08/04 05:45:37;;;;;;;18.50;11.50;;;;;;;;;;4973696;28;20066;-64
2023/08/04 05:48:04;;;;;;;18.67;11.38;;;;;;;;;;4977170;28;20047;-64
2023/08/04 05:50:31;;;;;;;18.90;12.15;;;;;;;;;;4974481;28;20042;-64
2023/08/04 05:52:58;;;;;;;18.35;11.40;;;;;;;;;;4976820;28;20054;-64
2023/08/04 05:55:25;;;;;;;21.58;11.23;;;;;;;;;;4975271;28;20039;-65
2023/08/04 05:57:53;;;;;;;20.00;10.70;;;;;;;;;;4974778;28;20086;-64
2023/08/04 06:00:20;;;;;;;20.02;11.52;;;;;;;;;;4976021;28;20038;-64
2023/08/04 06:02:47;;;;;;;22.73;11.57;;;;;;;;;;4936303;28;20057;-64
2023/08/04 06:05:13;;;;;;;16.80;10.82;;;;;;;;;;4975564;28;20069;-64
2023/08/04 06:07:40;;;;;;;19.13;10.48;;;;;;;;;;4974895;28;20807;-65
2023/08/04 06:10:07;;;;;;;15.75;9.52;;;;;;;;;;4983966;28;20317;-63
2023/08/04 06:12:34;;;;;;;17.48;10.50;;;;;;;;;;4974230;28;20242;-64
2023/08/04 06:15:01;;;;;;;16.67;9.57;;;;;;;;;;4975123;28;20046;-64
2023/08/04 06:17:28;;;;;;;19.25;10.20;;;;;;;;;;4975631;28;20045;-64
2023/08/04 06:20:14;;;;;;;17.77;9.98;;;;;;;;;;4992032;28;20036;-66
2023/08/04 06:22:41;;;;;;;20.60;11.13;;;;;;;;;;4961709;28;20100;-63
2023/08/04 06:25:14;;;;;;;16.48;9.85;;;;;;;;;;4970060;28;20062;-64
2023/08/04 06:27:43;;;;;;;19.52;11.25;;;;;;;;;;4961732;28;20042;-64
2023/08/04 06:30:10;;;;;;;21.75;11.40;;;;;;;;;;4969534;28;20046;-64
2023/08/04 06:32:38;;;;;;;16.98;10.38;;;;;;;;;;4970590;28;20388;-64
2023/08/04 06:35:04;;;;;;;16.73;10.27;;;;;;;;;;4969638;28;20043;-64
2023/08/04 06:37:31;;;;;;;17.75;11.02;;;;;;;;;;4961217;28;20444;-64
2023/08/04 06:39:58;;;;;;;16.17;9.98;;;;;;;;;;4969974;28;20057;-65
2023/08/04 06:42:24;;;;;;;15.52;10.07;;;;;;;;;;4968738;28;20464;-64
2023/08/04 06:44:51;;;;;;;14.63;8.73;;;;;;;;;;4970050;28;20058;-65
2023/08/04 06:47:19;;;;;;;14.27;8.95;;;;;;;;;;4967666;28;20039;-64
2023/08/04 06:49:45;;;;;;;14.95;8.80;;;;;;;;;;4969449;28;20044;-65
2023/08/04 06:52:12;;;;;;;14.18;8.80;;;;;;;;;;4971943;28;20487;-64
2023/08/04 06:54:39;;;;;;;18.67;8.90;;;;;;;;;;4969871;28;20050;-65
2023/08/04 06:57:05;;;;;;;16.60;8.88;;;;;;;;;;4956422;28;20456;-65
2023/08/04 06:59:32;;;;;;;13.70;8.52;;;;;;;;;;4968964;28;20038;-64
2023/08/04 07:01:59;;;;;;;16.10;9.18;;;;;;;;;;4981201;28;20111;-64
2023/08/04 07:04:25;;;;;;;13.93;8.40;;;;;;;;;;4980187;28;21268;-65
2023/08/04 07:06:52;;;;;;;22.50;8.43;;;;;;;;;;4979897;28;20161;-64
2023/08/04 07:09:19;;;;;;;17.27;8.38;;;;;;;;;;4975966;28;20127;-64
2023/08/04 07:11:45;;;;;;;12.93;8.07;;;;;;;;;;4975654;28;20034;-69
2023/08/04 07:14:12;;;;;;;14.48;8.20;;;;;;;;;;4974672;28;20527;-65
2023/08/04 07:16:39;;;;;;;15.95;8.05;;;;;;;;;;4975797;28;20342;-65
2023/08/04 07:19:25;;;;;;;14.98;8.15;;;;;;;;;;4973462;28;20399;-65
2023/08/04 07:21:52;;;;;;;14.07;8.30;;;;;;;;;;4990596;28;20041;-65
2023/08/04 07:24:18;;;;;;;12.05;7.68;;;;;;;;;;4973150;28;20046;-65
2023/08/04 07:26:45;;;;;;;14.45;8.75;;;;;;;;;;4967965;28;20049;-64
2023/08/04 07:29:12;;;;;;;16.23;7.95;;;;;;;;;;4980208;28;20049;-65
2023/08/04 07:31:38;;;;;;;12.68;8.05;;;;;;;;;;4974990;28;20038;-67
2023/08/04 07:34:05;;;;;;;15.55;7.93;;;;;;;;;;4979621;28;20030;-65
2023/08/04 07:36:31;;;;;;;13.55;8.27;;;;;;;;;;4971746;28;20185;-65
2023/08/04 07:38:59;;;;;;;17.65;7.90;;;;;;;;;;4973952;28;20050;-64
2023/08/04 07:41:25;;;;;;;15.75;7.75;;;;;;;;;;4979708;28;20807;-66
2023/08/04 07:43:53;;;;;;;14.82;7.60;;;;;;;;;;4978524;28;20118;-65
2023/08/04 07:46:20;;;;;;;12.48;7.13;;;;;;;;;;4972089;28;21051;-65
2023/08/04 07:48:47;;;;;;;13.38;8.13;;;;;;;;;;4964526;28;20411;-66
2023/08/04 07:51:14;;;;;;;16.40;7.10;;;;;;;;;;4971342;28;20034;-65
2023/08/04 07:53:40;;;;;;;14.05;7.85;;;;;;;;;;4978231;28;20444;-63
2023/08/04 07:56:07;;;;;;;10.88;7.18;;;;;;;;;;4973500;28;20783;-65
2023/08/04 07:58:34;;;;;;;14.63;7.22;;;;;;;;;;4986635;28;20046;-65
2023/08/04 08:01:03;;;;;;;12.63;7.40;;;;;;;;;;4990667;28;20083;-65
2023/08/04 08:03:31;;;;;;;13.98;7.63;;;;;;;;;;4974191;28;20050;-64
2023/08/04 08:05:58;;;;;;;10.65;7.38;;;;;;;;;;4976123;28;20038;-65
2023/08/04 08:08:25;;;;;;;14.70;7.90;;;;;;;;;;4982763;28;20046;-64
2023/08/04 08:10:53;;;;;;;17.10;7.65;;;;;;;;;;4974498;28;20038;-65
2023/08/04 08:13:20;;;;;;;13.50;7.82;;;;;;;;;;4974455;28;20039;-65
2023/08/04 08:15:46;;;;;;;14.38;7.57;;;;;;;;;;4974760;28;20442;-65
2023/08/04 08:18:13;;;;;;;12.00;7.40;;;;;;;;;;4991688;28;20170;-67
2023/08/04 08:20:41;;;;;;;12.35;7.80;;;;;;;;;;4974160;28;20042;-65
2023/08/04 08:23:08;;;;;;;14.05;7.50;;;;;;;;;;4972759;28;20054;-66
2023/08/04 08:25:35;;;;;;;14.82;7.93;;;;;;;;;;4983447;28;20035;-65
2023/08/04 08:28:02;;;;;;;15.95;7.00;;;;;;;;;;4980229;28;20347;-69
2023/08/04 08:30:29;;;;;;;12.93;7.40;;;;;;;;;;4988777;28;20065;-65
2023/08/04 08:32:55;;;;;;;14.32;7.75;;;;;;;;;;4973388;28;20105;-65
2023/08/04 08:35:22;;;;;;;12.73;7.55;;;;;;;;;;4981583;28;20030;-64
2023/08/04 08:37:49;;;;;;;16.95;8.40;;;;;;;;;;4972337;28;20046;-65
2023/08/04 08:40:15;;;;;;;11.77;7.78;;;;;;;;;;4971593;28;20039;-65
2023/08/04 08:42:42;;;;;;;14.35;7.68;;;;;;;;;;4968757;28;20070;-65
2023/08/04 08:45:09;;;;;;;13.55;7.60;;;;;;;;;;4973739;28;20144;-65
2023/08/04 08:47:36;;;;;;;12.57;7.70;;;;;;;;;;4973905;28;20039;-65
2023/08/04 08:50:06;;;;;;;13.45;7.30;;;;;;;;;;4973915;28;20112;-66
2023/08/04 08:52:33;;;;;;;13.93;7.40;;;;;;;;;;4972948;28;20066;-65
2023/08/04 08:55:00;;;;;;;13.55;8.07;;;;;;;;;;4968561;28;20144;-66
2023/08/04 08:57:27;;;;;;;13.07;7.78;;;;;;;;;;4964560;28;20039;-66
2023/08/04 08:59:55;;;;;;;13.95;7.70;;;;;;;;;;4971720;28;20038;-66
2023/08/04 09:02:22;;;;;;;16.92;7.97;;;;;;;;;;4972690;28;20042;-67
2023/08/04 09:04:49;;;;;;;13.50;8.30;;;;;;;;;;4974792;28;20057;-65
2023/08/04 09:07:37;;;;;;;14.73;8.18;;;;;;;;;;5027940;28;20064;-65
2023/08/04 09:10:03;;;;;;;13.90;8.07;;;;;;;;;;5009405;28;20110;-65
2023/08/04 09:12:32;;;;;;;14.75;7.95;;;;;;;;;;5033001;28;20521;-65
2023/08/04 09:14:58;;;;;;;15.35;7.60;;;;;;;;;;5033235;28;20040;-66
2023/08/04 09:17:32;;;;;;;14.50;8.02;;;;;;;;;;5032987;28;20611;-66
2023/08/04 09:19:59;;;;;;;13.60;7.38;;;;;;;;;;5032190;28;20079;-65
2023/08/04 09:22:26;;;;;;;13.27;7.95;;;;;;;;;;5031367;28;21528;-65
2023/08/04 09:25:00;;;;;;;17.40;8.27;;;;;;;;;;5034890;28;20150;-65
2023/08/04 09:27:30;;;;;;;13.32;8.02;;;;;;;;;;5032345;28;20037;-65
2023/08/04 09:29:58;;;;;;;14.43;8.23;;;;;;;;;;5032061;28;20103;-64
2023/08/04 09:32:25;;;;;;;15.35;7.60;;;;;;;;;;5032562;28;20079;-65
2023/08/04 09:35:02;;;;;;;13.93;7.97;;;;;;;;;;5036855;28;20037;-63
2023/08/04 09:37:31;;;;;;;18.17;8.10;;;;;;;;;;5032495;28;20037;-64
2023/08/04 09:39:58;;;;;;;11.95;8.10;;;;;;;;;;4983897;28;20039;-64
2023/08/04 09:42:24;;;;;;;14.18;7.75;;;;;;;;;;4975961;28;20046;-64
2023/08/04 09:44:54;;;;;;;13.18;7.68;;;;;;;;;;4977368;28;20686;-64
2023/08/04 09:47:25;;;;;;;13.88;7.88;;;;;;;;;;4975714;28;20066;-64
2023/08/04 09:49:52;;;;;;;16.15;8.18;;;;;;;;;;4977563;28;20483;-64
2023/08/04 09:52:20;;;;;;;12.85;7.88;;;;;;;;;;4977419;28;20065;-64
2023/08/04 09:54:47;;;;;;;13.10;8.05;;;;;;;;;;4981068;28;20045;-64
2023/08/04 09:57:14;;;;;;;11.82;7.88;;;;;;;;;;4975022;28;20043;-64
2023/08/04 09:59:41;;;;;;;13.40;7.72;;;;;;;;;;4981701;28;20046;-66
2023/08/04 10:02:08;;;;;;;13.90;7.85;;;;;;;;;;4975039;28;20412;-64
2023/08/04 10:04:34;;;;;;;13.65;7.82;;;;;;;;;;4983999;28;20093;-63
2023/08/04 10:07:01;;;;;;;12.38;7.97;;;;;;;;;;4979639;28;20060;-63
2023/08/04 10:09:30;;;;;;;14.13;7.78;;;;;;;;;;4973222;28;20116;-65
2023/08/04 10:11:57;;;;;;;12.27;7.55;;;;;;;;;;4976037;28;20043;-63
2023/08/04 10:14:23;;;;;;;12.27;7.40;;;;;;;;;;4975491;28;20445;-63
2023/08/04 10:16:50;;;;;;;13.73;8.50;;;;;;;;;;4977696;28;20038;-63
2023/08/04 10:19:23;;;;;;;14.40;7.90;;;;;;;;;;4976363;28;20041;-67
2023/08/04 10:21:51;;;;;;;12.57;8.55;;;;;;;;;;4990941;28;20062;-64
2023/08/04 10:24:20;;;;;;;14.02;7.65;;;;;;;;;;4975871;28;20046;-65
2023/08/04 10:26:53;;;;;;;16.05;8.18;;;;;;;;;;4975913;28;20456;-64
2023/08/04 10:29:21;;;;;;;11.88;7.10;;;;;;;;;;4975630;28;20386;-64
2023/08/04 10:31:47;;;;;;;15.65;8.65;;;;;;;;;;4975704;28;20034;-63
2023/08/04 10:34:17;;;;;;;14.25;7.78;;;;;;;;;;4993156;28;20061;-64
2023/08/04 10:36:54;;;;;;;12.40;7.47;;;;;;;;;;4975159;28;20926;-64
2023/08/04 10:39:50;;;;;;;15.65;8.40;;;;;;;;;;4973507;28;20049;-65
2023/08/04 10:42:27;;;;;;;13.07;7.50;;;;;;;;;;4977772;28;20030;-65
2023/08/04 10:44:54;;;;;;;14.68;7.97;;;;;;;;;;4974509;28;20065;-64
2023/08/04 10:47:35;;;;;;;15.15;8.25;;;;;;;;;;4986605;28;20514;-64
2023/08/04 10:50:05;;;;;;;11.07;7.30;;;;;;;;;;4986148;28;20046;-64
2023/08/04 10:52:32;;;;;;;16.85;8.63;;;;;;;;;;4974084;28;20048;-64
2023/08/04 10:54:59;;;;;;;13.77;7.22;;;;;;;;;;4974440;28;20126;-65
2023/08/04 10:57:28;;;;;;;11.60;7.57;;;;;;;;;;4972541;28;20077;-66
2023/08/04 10:59:55;;;;;;;12.85;7.93;;;;;;;;;;4982967;28;20128;-65
2023/08/04 11:02:23;;;;;;;11.93;7.35;;;;;;;;;;4968163;28;20042;-68
2023/08/04 11:04:50;;;;;;;14.40;8.27;;;;;;;;;;4975602;28;20058;-64
2023/08/04 11:07:17;;;;;;;14.68;7.78;;;;;;;;;;4992633;28;20035;-64
2023/08/04 11:09:45;;;;;;;12.35;7.10;;;;;;;;;;4974080;28;20173;-63
2023/08/04 11:12:12;;;;;;;12.40;7.53;;;;;;;;;;4974640;28;20038;-64
2023/08/04 11:14:38;;;;;;;13.10;7.63;;;;;;;;;;4987461;28;20076;-64
2023/08/04 11:17:12;;;;;;;11.63;7.38;;;;;;;;;;4982028;28;20034;-63
2023/08/04 11:19:39;;;;;;;12.57;8.15;;;;;;;;;;4973026;28;20045;-63
2023/08/04 11:22:09;;;;;;;15.23;8.18;;;;;;;;;;4975196;28;20074;-65
2023/08/04 11:24:35;;;;;;;14.95;8.90;;;;;;;;;;4973632;28;20042;-64
2023/08/04 11:27:02;;;;;;;13.98;8.25;;;;;;;;;;4973953;28;20034;-65
2023/08/04 11:29:29;;;;;;;12.95;8.30;;;;;;;;;;4973164;28;20053;-65
2023/08/04 11:31:55;;;;;;;13.13;7.72;;;;;;;;;;4974075;28;20116;-64
2023/08/04 11:34:22;;;;;;;12.68;8.13;;;;;;;;;;4973490;28;20518;-65
2023/08/04 11:36:49;;;;;;;14.43;8.10;;;;;;;;;;4973744;28;20404;-65
2023/08/04 11:39:16;;;;;;;14.00;8.05;;;;;;;;;;4971776;28;20053;-65
2023/08/04 11:41:44;;;;;;;13.32;7.60;;;;;;;;;;4983262;28;20050;-65
2023/08/04 11:44:10;;;;;;;12.48;8.07;;;;;;;;;;4976591;28;20397;-65
2023/08/04 11:46:37;;;;;;;15.30;7.82;;;;;;;;;;4963751;28;20075;-65
2023/08/04 11:49:07;;;;;;;15.70;8.05;;;;;;;;;;4974187;28;20428;-65
2023/08/04 11:51:34;;;;;;;13.95;7.78;;;;;;;;;;4991487;28;20038;-66
2023/08/04 11:54:00;;;;;;;13.32;8.38;;;;;;;;;;4970475;28;20039;-67
2023/08/04 11:56:37;;;;;;;14.50;7.97;;;;;;;;;;4971344;28;20034;-64
2023/08/04 11:59:11;;;;;;;11.82;8.27;;;;;;;;;;4978093;28;20049;-64
2023/08/04 12:01:37;;;;;;;15.23;7.93;;;;;;;;;;4972052;28;20083;-65
2023/08/04 12:04:19;;;;;;;14.32;8.48;;;;;;;;;;4990649;28;20057;-64
2023/08/04 12:06:46;;;;;;;14.02;8.35;;;;;;;;;;4973129;28;20042;-64
2023/08/04 12:09:13;;;;;;;13.13;8.25;;;;;;;;;;4972666;28;20038;-64
2023/08/04 12:11:49;;;;;;;12.73;8.07;;;;;;;;;;4984398;28;20046;-64
2023/08/04 12:14:16;;;;;;;14.30;8.30;;;;;;;;;;4992321;28;20046;-65
2023/08/04 12:16:59;;;;;;;14.50;8.30;;;;;;;;;;4973755;28;20045;-66
2023/08/04 12:19:27;;;;;;;19.70;8.93;;;;;;;;;;4981402;28;20070;-64
2023/08/04 12:21:55;;;;;;;13.57;7.82;;;;;;;;;;5001445;28;20129;-64
2023/08/04 12:24:21;;;;;;;14.32;8.18;;;;;;;;;;4998661;28;21705;-63
2023/08/04 12:26:48;;;;;;;15.77;9.35;;;;;;;;;;4978036;28;20070;-65
2023/08/04 12:29:15;;;;;;;15.90;8.55;;;;;;;;;;4983511;28;20044;-65
2023/08/04 12:31:41;;;;;;;15.52;8.52;;;;;;;;;;4976416;28;20126;-65
2023/08/04 12:34:09;;;;;;;16.55;8.68;;;;;;;;;;4974961;28;20066;-64
2023/08/04 12:36:36;;;;;;;16.73;8.52;;;;;;;;;;4974209;28;20034;-65
2023/08/04 12:39:07;;;;;;;13.70;8.73;;;;;;;;;;4992504;28;20085;-66
2023/08/04 12:41:33;;;;;;;18.40;8.90;;;;;;;;;;4975041;28;20046;-66
2023/08/04 12:44:00;;;;;;;16.35;9.23;;;;;;;;;;4976923;28;20149;-69
2023/08/04 12:46:27;;;;;;;17.65;9.07;;;;;;;;;;4994749;28;20030;-66
2023/08/04 12:48:54;;;;;;;18.30;8.63;;;;;;;;;;4977124;28;20050;-67
2023/08/04 12:51:21;;;;;;;17.90;9.85;;;;;;;;;;4979736;28;20074;-63
2023/08/04 12:53:48;;;;;;;15.48;9.05;;;;;;;;;;4995116;28;20400;-65
2023/08/04 12:56:15;;;;;;;20.02;9.05;;;;;;;;;;4979068;28;20054;-63
2023/08/04 12:58:41;;;;;;;14.90;9.07;;;;;;;;;;4976984;28;20045;-66
2023/08/04 13:01:08;;;;;;;14.38;8.80;;;;;;;;;;4987293;28;20394;-65
2023/08/04 13:03:35;;;;;;;16.70;9.30;;;;;;;;;;4978101;28;20104;-65
2023/08/04 13:06:02;;;;;;;18.08;8.93;;;;;;;;;;4977763;28;20121;-64
2023/08/04 13:08:28;;;;;;;14.55;8.73;;;;;;;;;;4975934;28;20042;-64
2023/08/04 13:10:55;;;;;;;16.33;9.13;;;;;;;;;;4977467;28;20039;-63
2023/08/04 13:13:21;;;;;;;16.95;9.10;;;;;;;;;;4985484;28;20842;-64
2023/08/04 13:15:48;;;;;;;18.77;9.13;;;;;;;;;;4975269;28;20043;-64
2023/08/04 13:18:15;;;;;;;16.15;8.57;;;;;;;;;;4975745;28;20113;-64
2023/08/04 13:20:41;;;;;;;18.15;9.38;;;;;;;;;;4975873;28;20183;-65
2023/08/04 13:23:08;;;;;;;14.68;8.85;;;;;;;;;;4992513;28;20081;-66
2023/08/04 13:25:39;;;;;;;18.75;9.35;;;;;;;;;;4975112;28;20491;-65
2023/08/04 13:28:06;;;;;;;18.15;9.02;;;;;;;;;;4979088;28;20521;-65
2023/08/04 13:30:33;;;;;;;17.58;8.52;;;;;;;;;;4977592;28;20027;-65
2023/08/04 13:33:00;;;;;;;17.23;9.10;;;;;;;;;;4977027;28;20498;-65
2023/08/04 13:35:26;;;;;;;18.15;9.55;;;;;;;;;;4982236;28;20391;-66
2023/08/04 13:37:53;;;;;;;16.38;9.30;;;;;;;;;;4979392;28;20042;-66
2023/08/04 13:40:20;;;;;;;15.10;9.52;;;;;;;;;;4977147;28;20137;-66
2023/08/04 13:42:47;;;;;;;15.13;9.43;;;;;;;;;;4976272;28;20668;-66
2023/08/04 13:45:13;;;;;;;17.15;9.80;;;;;;;;;;4976762;28;20845;-65
2023/08/04 13:47:40;;;;;;;17.52;9.05;;;;;;;;;;4978329;28;20621;-66
2023/08/04 13:50:07;;;;;;;17.27;10.00;;;;;;;;;;4983522;28;20443;-66
2023/08/04 13:52:33;;;;;;;18.67;9.25;;;;;;;;;;4986119;28;20105;-65
2023/08/04 13:55:00;;;;;;;19.33;9.77;;;;;;;;;;4976292;28;20510;-66
2023/08/04 13:57:26;;;;;;;19.77;9.90;;;;;;;;;;4985739;28;20046;-66
2023/08/04 13:59:53;;;;;;;17.33;8.98;;;;;;;;;;4975747;28;20046;-66
2023/08/04 14:02:19;;;;;;;18.42;9.32;;;;;;;;;;4977103;28;20053;-65
2023/08/04 14:04:46;;;;;;;19.60;9.45;;;;;;;;;;4977052;28;20046;-65
2023/08/04 14:07:13;;;;;;;24.13;9.98;;;;;;;;;;4976180;28;20040;-63
2023/08/04 14:09:39;;;;;;;17.75;9.35;;;;;;;;;;4982888;28;20567;-65
2023/08/04 14:12:06;;;;;;;20.02;9.35;;;;;;;;;;4976663;28;20077;-66
2023/08/04 14:14:35;;;;;;;16.90;9.82;;;;;;;;;;4974106;28;20161;-65
2023/08/04 14:17:01;;;;;;;16.30;8.82;;;;;;;;;;4975020;28;20038;-65
2023/08/04 14:19:28;;;;;;;18.08;9.13;;;;;;;;;;4973978;28;20125;-66
2023/08/04 14:21:55;;;;;;;15.68;8.90;;;;;;;;;;4976994;28;20042;-66
2023/08/04 14:24:22;;;;;;;16.13;9.50;;;;;;;;;;4988185;28;20057;-66
2023/08/04 14:26:48;;;;;;;14.95;9.25;;;;;;;;;;4988884;28;20062;-67